»·PEaware :: N64TZ KSEA-KPDX

N64TZ :: KSEA-KPDX

FLIGHT INFORMATION

Flight Status: Arrived
Operator: Privately registered:
United States
More flights under this callsign
Pilot: David H. (11212)
Aircraft: PIPER PA-28 CHEROKEE ARCHER
(P28A)
More flights by this aircraft type
Origin: KSEA Seattle-Tacoma Intl
United States
Destination: KPDX Portland Intl
United States
More flights between these airports :: More routes between these airports
Route: +V495 BTG
File this flight plan on PilotEdge
Remarks:
Altitude:
(Current/Filed)
9,000ft
Speed:
(Current/Filed)
110kts
Departed: 09-Jan-18 04:13 PM
Arrived: 09-Jan-18 05:34 PM
Distance/Time
Traveled:
112nm/1:21
Distance/Time
To Go:
Arrived

Flight Plot

Page will automatically refresh every two minutes.

Flight plan parsing failed; only flown route is shown


Map Options




Map Legend


Flown Route
Filed Route
Departure Airport
Arrival Airport
Navaid (VOR, NDB)
Fix

Horizontal Profiles

Position Reports

Time Latitude Longitude Heading Altitude Ground
Speed
09-Jan-18 15:38 47.449095 -122.304207 129 436ft 0kts
09-Jan-18 15:39 47.449095 -122.304207 129 436ft 0kts
09-Jan-18 15:40 47.449095 -122.304207 129 436ft 0kts
09-Jan-18 15:41 47.449095 -122.304207 129 436ft 0kts
09-Jan-18 15:42 47.449095 -122.304207 129 436ft 0kts
09-Jan-18 15:43 47.449095 -122.304207 129 436ft 0kts
09-Jan-18 15:44 47.449095 -122.304207 129 436ft 0kts
09-Jan-18 15:45 47.449095 -122.304207 129 436ft 0kts
09-Jan-18 15:46 47.449095 -122.304207 129 436ft 0kts
09-Jan-18 15:47 47.449095 -122.304207 129 436ft 0kts
09-Jan-18 15:48 47.449095 -122.304207 129 436ft 0kts
09-Jan-18 15:49 47.449095 -122.304207 129 436ft 0kts
09-Jan-18 15:50 47.449095 -122.304207 129 436ft 0kts
09-Jan-18 15:51 47.449095 -122.304207 129 436ft 0kts
09-Jan-18 15:52 47.449095 -122.304207 129 436ft 0kts
09-Jan-18 15:53 47.449095 -122.304207 129 436ft 0kts
09-Jan-18 15:54 47.449095 -122.304207 129 436ft 0kts
09-Jan-18 15:55 47.449095 -122.304207 129 436ft 0kts
09-Jan-18 15:56 47.449095 -122.304207 129 436ft 0kts
09-Jan-18 15:57 47.449095 -122.304207 129 436ft 0kts
09-Jan-18 15:58 47.449095 -122.304207 129 436ft 0kts
09-Jan-18 15:59 47.449095 -122.304207 129 436ft 0kts
09-Jan-18 16:00 47.449095 -122.304207 129 436ft 0kts
09-Jan-18 16:01 47.449095 -122.304207 129 436ft 0kts
09-Jan-18 16:02 47.449095 -122.304207 129 436ft 0kts
09-Jan-18 16:03 47.449095 -122.304207 129 436ft 0kts
09-Jan-18 16:04 47.449095 -122.304207 129 436ft 0kts
09-Jan-18 16:05 47.449095 -122.304207 129 436ft 0kts
09-Jan-18 16:06 47.449095 -122.304207 129 436ft 0kts
09-Jan-18 16:07 47.449095 -122.304207 129 436ft 0kts
09-Jan-18 16:08 47.449095 -122.304207 129 436ft 0kts
09-Jan-18 16:09 47.449095 -122.304207 129 436ft 0kts
09-Jan-18 16:10 47.449095 -122.304207 129 436ft 0kts
09-Jan-18 16:11 47.449095 -122.304207 129 436ft 0kts
09-Jan-18 16:12 47.449044 -122.304331 286 436ft 0kts
09-Jan-18 16:13 47.450630 -122.305605 342 436ft 15kts
09-Jan-18 16:14 47.455052 -122.306162 358 436ft 23kts
09-Jan-18 16:15 47.459943 -122.306152 355 436ft 21kts
09-Jan-18 16:16 47.463466 -122.306121 340 436ft 0kts
09-Jan-18 16:17 47.463466 -122.306121 340 436ft 0kts
09-Jan-18 16:18 47.463466 -122.306121 340 436ft 0kts
09-Jan-18 16:19 47.458358 -122.308071 181 455ft 78kts
09-Jan-18 16:20 47.441734 -122.309839 179 1130ft 73kts
09-Jan-18 16:21 47.425393 -122.310432 179 1793ft 71kts
09-Jan-18 16:22 47.408443 -122.307787 182 2415ft 74kts
09-Jan-18 16:23 47.389407 -122.307340 182 3020ft 78kts
09-Jan-18 16:24 47.370203 -122.307973 181 3626ft 78kts
09-Jan-18 16:25 47.350451 -122.307883 182 4212ft 79kts
09-Jan-18 16:26 47.330151 -122.308225 183 4768ft 80kts
09-Jan-18 16:27 47.309408 -122.307382 184 5302ft 82kts
09-Jan-18 16:28 47.287873 -122.306852 183 5822ft 83kts
09-Jan-18 16:29 47.266784 -122.307588 183 6297ft 84kts
09-Jan-18 16:30 47.245404 -122.307003 184 6759ft 84kts
09-Jan-18 16:31 47.226160 -122.305861 194 7179ft 81kts
09-Jan-18 16:32 47.206135 -122.306439 195 7582ft 80kts
09-Jan-18 16:33 47.185974 -122.307051 203 7975ft 80kts
09-Jan-18 16:34 47.163474 -122.308570 194 8338ft 91kts
09-Jan-18 16:35 47.140862 -122.309353 194 8751ft 89kts
09-Jan-18 16:36 47.117571 -122.309700 191 9013ft 102kts
09-Jan-18 16:37 47.089018 -122.309122 191 9048ft 114kts
09-Jan-18 16:38 47.058013 -122.309320 190 8991ft 119kts
09-Jan-18 16:39 47.027313 -122.309722 186 8982ft 119kts
09-Jan-18 16:40 46.996616 -122.309420 196 8974ft 116kts
09-Jan-18 16:41 46.965242 -122.309371 191 8982ft 118kts
09-Jan-18 16:42 46.933773 -122.309880 189 8986ft 118kts
09-Jan-18 16:43 46.902526 -122.310374 191 8991ft 118kts
09-Jan-18 16:44 46.873564 -122.310668 191 8997ft 118kts
09-Jan-18 16:45 46.841887 -122.312589 194 9005ft 116kts
09-Jan-18 16:46 46.812490 -122.322782 221 9003ft 106kts
09-Jan-18 16:47 46.786429 -122.343053 219 9005ft 107kts
09-Jan-18 16:48 46.760766 -122.363937 216 9015ft 108kts
09-Jan-18 16:49 46.734090 -122.384217 215 9014ft 109kts
09-Jan-18 16:50 46.707165 -122.403822 211 9008ft 111kts
09-Jan-18 16:51 46.678200 -122.418753 205 9016ft 112kts
09-Jan-18 16:52 46.648476 -122.429759 201 9025ft 113kts
09-Jan-18 16:53 46.624595 -122.437561 202 9031ft 113kts
09-Jan-18 16:54 46.600131 -122.442105 193 9034ft 117kts
09-Jan-18 16:55 46.574662 -122.441376 183 9041ft 121kts
09-Jan-18 16:56 46.548865 -122.439866 192 9049ft 117kts
09-Jan-18 16:57 46.523254 -122.443913 200 9039ft 115kts
09-Jan-18 16:58 46.497919 -122.449839 199 9057ft 115kts
09-Jan-18 16:59 46.472508 -122.454810 199 9063ft 115kts
09-Jan-18 17:00 46.448558 -122.462065 202 9075ft 113kts
09-Jan-18 17:01 46.424486 -122.470638 205 9077ft 112kts
09-Jan-18 17:02 46.400307 -122.478974 201 9089ft 114kts
09-Jan-18 17:03 46.379415 -122.483816 193 9097ft 117kts
09-Jan-18 17:04 46.357029 -122.485965 194 9106ft 116kts
09-Jan-18 17:05 46.338589 -122.487448 198 9109ft 115kts
09-Jan-18 17:06 46.314144 -122.494026 203 9098ft 114kts
09-Jan-18 17:07 46.296101 -122.497706 195 9092ft 117kts
09-Jan-18 17:08 46.271367 -122.501558 192 9083ft 118kts
09-Jan-18 17:09 46.252477 -122.503124 195 9077ft 117kts
09-Jan-18 17:10 46.225576 -122.506290 196 9068ft 117kts
09-Jan-18 17:11 46.206190 -122.508989 195 9061ft 117kts
09-Jan-18 17:12 46.179524 -122.515211 202 9048ft 114kts
09-Jan-18 17:13 46.159979 -122.520283 202 9044ft 114kts
09-Jan-18 17:14 46.136415 -122.526388 196 9039ft 117kts
09-Jan-18 17:15 46.111616 -122.530259 195 9036ft 117kts
09-Jan-18 17:16 46.086627 -122.532979 200 9031ft 115kts
09-Jan-18 17:17 46.061237 -122.534136 188 8650ft 124kts
09-Jan-18 17:18 46.035750 -122.540810 201 8193ft 115kts
09-Jan-18 17:19 46.009157 -122.548977 202 7635ft 114kts
09-Jan-18 17:20 45.982415 -122.563087 213 6931ft 110kts
09-Jan-18 17:21 45.955958 -122.580293 214 6163ft 107kts
09-Jan-18 17:22 45.930440 -122.597388 216 5408ft 109kts
09-Jan-18 17:23 45.904903 -122.615950 217 4869ft 111kts
09-Jan-18 17:24 45.882272 -122.632990 216 4279ft 115kts
09-Jan-18 17:25 45.857468 -122.651801 217 3997ft 118kts
09-Jan-18 17:26 45.831824 -122.672119 214 4042ft 120kts
09-Jan-18 17:27 45.805973 -122.692013 215 4056ft 122kts
09-Jan-18 17:28 45.780044 -122.712665 216 4051ft 122kts
09-Jan-18 17:29 45.754501 -122.733912 213 3818ft 119kts
09-Jan-18 17:30 45.728722 -122.750500 212 3053ft 105kts
09-Jan-18 17:31 45.707728 -122.768659 218 2502ft 99kts
09-Jan-18 17:32 45.685548 -122.783303 173 2033ft 102kts
09-Jan-18 17:33 45.665175 -122.766930 143 2038ft 97kts
09-Jan-18 17:34 45.650998 -122.740353 116 1936ft 98kts
09-Jan-18 17:35 45.639665 -122.710510 116 1921ft 97kts
09-Jan-18 17:36 45.628969 -122.682284 114 1463ft 93kts
09-Jan-18 17:37 45.617568 -122.655434 120 1019ft 91kts
09-Jan-18 17:38 45.607233 -122.628190 119 613ft 90kts
09-Jan-18 17:39 45.597617 -122.603029 122 141ft 77kts
09-Jan-18 17:40 45.591911 -122.588315 122 26ft 20kts
09-Jan-18 17:41 45.590308 -122.586645 264 26ft 0kts

Navigation Log

Ident Type
Flight plan parsing failed, navigation log unavailable